Latest Coastal Weather Observations for Sunshine Coast Airport

IDQ60701

Issued at 5:32 am EST Monday 27 September 2021 (issued every 10 minutes, with the page automatically refreshed every 10 minutes)

About coastal observations | Map of coastal stations | Coastal observations for QLD | Marine services | Other Formats
Station Details ID: 040861 Name: SUNSHINE COAST AIRPORT Lat: -26.60 Lon: 153.09 Height: 3.42 m
Data from the previous 72 hours. | See also: Recent months at Sunshine Coast Airport
Date/Time
EST
Wind Sea
Height
m
Swell Vis
km
Cloud Weather Temp
°C
Press
MSL
hPa
Rain since
9am
mm
Dir  Spd
kts
Gust
kts
Height
m
Period
s
Dir
27/05:30am ESE 16 21 - - - - 10 Partly cloudy - 19.1 1020.6 4.6
27/05:00am ESE 15 21 - - - - 10 Partly cloudy - 18.6 1020.3 4.6
27/04:38am ESE 16 23 - - - - 10 Partly cloudy - 17.9 1020.1 4.2
27/04:30am ESE 16 25 - - - - 10 Partly cloudy - 17.7 1020.1 4.2
27/04:15am ESE 18 25 - - - - 6 Partly cloudy - 17.3 1020.0 1.8
27/04:13am ESE 17 25 - - - - 10 Partly cloudy - 17.6 1019.9 0.8
27/04:00am E 18 23 - - - - 10 Partly cloudy - 19.4 1019.6 0.4
27/03:30am ESE 15 20 - - - - 10 Partly cloudy - 19.5 1019.6 0.4
27/03:00am ESE 17 23 - - - - 10 Mostly cloudy - 19.6 1019.7 0.4
27/02:30am SE 15 22 - - - - 10 Partly cloudy - 19.7 1020.0 0.4
27/02:00am ESE 18 25 - - - - 10 Partly cloudy - 19.7 1020.0 0.4
27/01:30am SE 18 24 - - - - 10 Partly cloudy - 19.8 1019.9 0.4
27/01:00am SE 17 26 - - - - 10 Partly cloudy - 19.6 1020.1 0.4
27/12:30am SE 19 24 - - - - 10 Partly cloudy - 19.6 1020.4 0.4
27/12:00am SE 20 27 - - - - 10 Cloudy - 19.5 1020.5 0.4
 
Date/Time
EST
Wind Sea
Height
m
Swell Vis
km
Cloud Weather Temp
°C
Press
MSL
hPa
Rain since
9am
mm
Dir  Spd
kts
Gust
kts
Height
m
Period
s
Dir
26/11:30pm SE 17 22 - - - - 10 Partly cloudy - 19.7 1020.5 0.4
26/11:00pm SE 19 25 - - - - 10 Partly cloudy - 19.6 1020.6 0.4
26/10:30pm SE 19 28 - - - - 8 Partly cloudy - 19.0 1020.7 0.4
26/10:13pm SE 17 28 - - - - 10 Partly cloudy - 19.7 1020.5 0.0
26/10:00pm SE 20 28 - - - - 10 Partly cloudy - 19.8 1020.4 0.0
26/09:30pm SE 22 29 - - - - 10 Partly cloudy - 19.5 1020.5 0.0
26/09:00pm SSE 20 27 - - - - 10 Cloudy Showers 19.3 1020.4 0.0
26/08:30pm SSE 15 20 - - - - 10 Partly cloudy - 19.9 1020.2 0.0
26/08:00pm SSE 16 22 - - - - 10 Partly cloudy - 20.3 1020.1 0.0
26/07:30pm SSE 20 26 - - - - 10 Partly cloudy - 20.4 1019.4 0.0
26/07:18pm SE 18 28 - - - - 10 Partly cloudy - 20.6 1019.1 0.0
26/07:00pm SE 15 20 - - - - 10 Partly cloudy - 20.9 1018.8 0.0
26/06:30pm SSE 16 22 - - - - 10 Partly cloudy - 21.0 1018.6 0.0
26/06:00pm SE 14 22 - - - - 10 Cloudy - 21.1 1018.2 0.0
26/05:30pm SSE 15 21 - - - - 10 Partly cloudy - 21.2 1017.7 0.0
26/05:00pm SSE 14 21 - - - - 10 Partly cloudy - 21.3 1017.2 0.0
26/04:30pm SSE 15 22 - - - - 10 Partly cloudy - 21.5 1016.9 0.0
26/04:00pm SSE 16 21 - - - - 10 - - 22.0 1016.6 0.0
26/03:30pm SE 15 19 - - - - 10 - - 22.4 1016.5 0.0
26/03:00pm SSE 15 21 - - - - 10 Mostly cloudy - 23.0 1016.6 0.0
26/02:30pm SSE 16 23 - - - - 10 - - 22.9 1016.7 0.0
26/02:00pm SSE 17 22 - - - - 10 - - 23.1 1016.6 0.0
26/01:30pm SSE 18 22 - - - - 10 - - 23.4 1016.7 0.0
26/01:00pm SSE 16 22 - - - - 10 - - 24.5 1016.9 0.0
26/12:30pm SSE 15 20 - - - - 10 - - 24.3 1017.1 0.0
26/12:00pm SSE 16 21 - - - - 10 Mostly cloudy - 24.0 1017.5 0.0
26/11:30am SSE 16 22 - - - - 10 Partly cloudy - 24.1 1017.9 0.0
26/11:00am SSE 15 19 - - - - 10 Partly cloudy - 23.5 1018.2 0.0
26/10:30am SSE 13 18 - - - - 10 Partly cloudy - 22.9 1018.4 0.0
26/10:00am S 13 17 - - - - 10 Partly cloudy - 24.3 1018.4 0.0
26/09:30am S 13 19 - - - - 10 Partly cloudy - 23.7 1018.3 0.0
26/09:00am S 14 19 - - - - 10 Mostly cloudy - 22.8 1018.3 0.0
26/08:30am SSW 12 17 - - - - 10 - - 22.6 1018.3 0.0
26/08:00am S 14 17 - - - - 10 Partly cloudy - 22.1 1018.2 0.0
26/07:30am SSW 12 15 - - - - 10 Partly cloudy - 20.8 1018.0 0.0
26/07:00am SSW 10 15 - - - - 10 - - 20.2 1017.8 0.0
26/06:30am SW 8 12 - - - - 10 Partly cloudy - 19.4 1017.6 0.0
26/06:00am SW 9 12 - - - - 10 Cloudy - 18.6 1017.2 0.0
26/05:30am SW 7 11 - - - - 10 Partly cloudy - 17.4 1016.8 0.0
26/05:00am WSW 7 8 - - - - 10 - - 15.5 1016.2 0.0
26/04:30am WSW 5 7 - - - - 10 - - 13.4 1015.9 0.0
26/04:00am SW 5 13 - - - - 10 - - 14.1 1015.7 0.0
26/03:30am NW 4 5 - - - - 10 - - 14.5 1014.9 0.0
26/03:00am NW 1 3 - - - - 10 Mostly clear - 15.4 1014.9 0.0
26/02:30am WNW 2 4 - - - - 10 - - 15.6 1015.0 0.0
26/02:00am NNE 1 5 - - - - 10 - - 16.4 1015.2 0.0
26/01:30am NNE 7 8 - - - - 10 - - 17.0 1015.2 0.0
26/01:00am NNW 3 5 - - - - 10 - - 17.9 1015.3 0.0
26/12:30am NNW 5 5 - - - - 10 - - 17.8 1015.3 0.0
26/12:00am NNW 9 11 - - - - 10 Partly cloudy - 19.4 1015.4 0.0
 
Date/Time
EST
Wind Sea
Height
m
Swell Vis
km
Cloud Weather Temp
°C
Press
MSL
hPa
Rain since
9am
mm
Dir  Spd
kts
Gust
kts
Height
m
Period
s
Dir
25/11:30pm NNW 8 10 - - - - 10 - - 19.3 1015.4 0.0
25/11:00pm NW 10 12 - - - - 10 - - 19.0 1015.4 0.0
25/10:30pm NW 8 9 - - - - 10 - - 18.1 1015.2 0.0
25/10:00pm NW 8 9 - - - - 10 - - 17.5 1015.3 0.0
25/09:30pm NW 8 10 - - - - 10 - - 17.3 1015.4 0.0
25/09:00pm N 5 6 - - - - 10 Mostly cloudy - 17.4 1015.2 0.0
25/08:30pm W 4 5 - - - - 10 Partly cloudy - 19.0 1015.2 0.0
25/08:00pm NNW 5 6 - - - - 10 - - 19.6 1014.8 0.0
25/07:30pm NNW 6 8 - - - - 10 Partly cloudy - 19.0 1014.5 0.0
25/07:00pm N 6 8 - - - - 10 Partly cloudy - 20.2 1014.4 0.0
25/06:30pm N 12 16 - - - - 10 - - 21.1 1014.0 0.0
25/06:00pm N 13 17 - - - - 10 - - 21.3 1013.9 0.0
25/05:30pm NNE 13 17 - - - - 10 - - 21.6 1013.7 0.0
25/05:00pm NNE 14 19 - - - - 10 - - 22.3 1013.5 0.0
25/04:30pm NNE 14 19 - - - - 10 - - 22.8 1013.3 0.0
25/04:00pm NNE 16 19 - - - - 10 - - 23.2 1013.1 0.0
25/03:30pm NNE 16 19 - - - - 10 - - 23.6 1013.1 0.0
25/03:00pm NE 14 17 - - - - 10 - - 24.4 1013.4 0.0
25/02:30pm NNE 17 20 - - - - 10 - - 24.2 1013.5 0.0
25/02:00pm NNE 18 21 - - - - 10 - - 24.5 1013.8 0.0
25/01:30pm NNE 18 22 - - - - 10 - - 24.9 1014.3 0.0
25/01:00pm NE 16 19 - - - - 10 - - 25.2 1014.7 0.0
25/12:30pm NE 15 18 - - - - 10 - - 24.0 1015.0 0.0
25/12:00pm NE 15 18 - - - - 10 - - 25.4 1015.5 0.0
25/11:30am NNE 12 15 - - - - 10 - - 26.0 1015.8 0.0
25/11:00am N 7 11 - - - - 10 - - 26.7 1016.0 0.0
25/10:30am NNW 9 13 - - - - 10 - - 26.6 1016.4 0.0
25/10:00am NNW 10 18 - - - - 10 - - 25.1 1016.6 0.0
25/09:30am NW 10 16 - - - - 10 - - 25.0 1017.0 0.0
25/09:00am NNW 8 13 - - - - 10 - - 23.7 1017.4 0.0
25/08:30am N 9 12 - - - - 10 - - 21.9 1017.5 0.0
25/08:00am NNW 8 11 - - - - 10 - - 20.6 1017.6 0.0
25/07:30am NNW 7 11 - - - - 10 - - 19.6 1017.4 0.0
25/07:00am NNW 9 12 - - - - 10 - - 18.4 1017.3 0.0
25/06:30am N 7 9 - - - - 10 - - 16.8 1016.7 0.0
25/06:00am NNW 7 10 - - - - 10 - - 15.8 1016.5 0.0
25/05:30am NNW 8 11 - - - - 10 - - 15.5 1016.3 0.0
25/05:00am NNW 11 14 - - - - 10 - - 16.1 1015.8 0.0
25/04:30am NNW 12 17 - - - - 10 - - 15.9 1015.5 0.0
25/04:00am NNW 11 15 - - - - 10 - - 15.9 1015.2 0.0
25/03:30am NNW 11 15 - - - - 10 - - 15.9 1015.4 0.0
25/03:00am NNW 7 11 - - - - 10 - - 14.9 1015.7 0.0
25/02:30am NNW 8 11 - - - - 10 - - 15.3 1016.1 0.0
25/02:00am N 8 12 - - - - 10 - - 14.9 1016.0 0.0
25/01:30am N 7 9 - - - - 10 - - 14.5 1016.7 0.0
25/01:00am NNW 7 9 - - - - 10 - - 14.4 1016.9 0.0
25/12:30am NNW 6 7 - - - - 10 - - 14.3 1017.2 0.0
25/12:00am N 7 9 - - - - 10 - - 14.7 1017.4 0.0
 
Date/Time
EST
Wind Sea
Height
m
Swell Vis
km
Cloud Weather Temp
°C
Press
MSL
hPa
Rain since
9am
mm
Dir  Spd
kts
Gust
kts
Height
m
Period
s
Dir
24/11:30pm N 8 9 - - - - 10 - - 15.2 1017.6 0.0
24/11:00pm NNW 7 9 - - - - 10 - - 15.6 1017.8 0.0
24/10:30pm N 7 10 - - - - 10 - - 16.2 1017.7 0.0
24/10:00pm N 8 10 - - - - 10 - - 16.2 1017.9 0.0
24/09:30pm N 8 9 - - - - 10 - - 16.8 1018.0 0.0
24/09:00pm N 8 10 - - - - 10 - - 17.6 1017.9 0.0
24/08:30pm NNW 8 13 - - - - 10 - - 18.1 1017.7 0.0
24/08:00pm NNW 8 10 - - - - 10 - - 18.1 1017.5 0.0
24/07:30pm NNW 7 9 - - - - 10 - - 18.4 1017.3 0.0
24/07:00pm N 8 12 - - - - 10 - - 19.2 1017.0 0.0
24/06:30pm N 11 16 - - - - 10 - - 20.1 1016.6 0.0
24/06:10pm N 15 25 - - - - 10 - - 20.1 1016.3 0.0
24/06:00pm N 17 23 - - - - 10 - - 20.4 1016.0 0.0
24/05:30pm N 18 25 - - - - 10 - - 20.6 1015.6 0.0
24/05:00pm N 18 25 - - - - 10 - - 21.0 1015.3 0.0
24/04:30pm NNE 19 26 - - - - 10 - - 21.7 1015.1 0.0
24/04:00pm NNE 18 26 - - - - 10 - - 22.1 1015.0 0.0
24/03:30pm NNE 21 26 - - - - 10 - - 22.4 1015.0 0.0
24/03:00pm NNE 21 26 - - - - 10 - - 22.6 1015.1 0.0
24/02:30pm NNE 20 25 - - - - 10 - - 23.4 1015.3 0.0
24/02:00pm NNE 19 23 - - - - 10 - - 23.3 1015.9 0.0
24/01:30pm NNE 19 23 - - - - 10 - - 24.2 1016.5 0.0
24/01:00pm NNE 19 23 - - - - 10 - - 24.1 1017.0 0.0
24/12:30pm NNE 17 21 - - - - 10 - - 23.9 1017.9 0.0
24/12:00pm NE 17 20 - - - - 10 - - 24.3 1018.5 0.0
24/11:30am NE 15 19 - - - - 10 - - 24.4 1018.9 0.0
24/11:00am NNW 9 17 - - - - 10 - - 26.3 1019.5 0.0
24/10:30am NNW 10 17 - - - - 10 - - 25.1 1019.8 0.0
24/10:00am NW 9 12 - - - - 10 - - 24.7 1020.0 0.0
24/09:30am NW 12 17 - - - - 10 - - 23.3 1020.4 0.0
24/09:00am NW 13 18 - - - - 10 - - 22.5 1020.4 0.0
24/08:30am NW 10 14 - - - - 10 - - 21.4 1020.9 0.0
24/08:00am NW 8 11 - - - - 10 - - 20.1 1021.0 0.0
24/07:30am NW 4 5 - - - - 10 - - 16.8 1021.0 0.0
24/07:00am WNW 5 7 - - - - 10 - - 14.7 1020.9 0.0
24/06:30am WNW 5 6 - - - - 10 - - 13.1 1020.8 0.0
24/06:00am WNW 6 6 - - - - 10 - - 10.0 1020.5 0.0

Other formats

Comma delimited format used in spreadsheet applications
http://www.bom.gov.au/fwo/IDQ60701/IDQ60701.94569.axf

JavaScript Object Notation format (JSON) in row-major order
http://www.bom.gov.au/fwo/IDQ60701/IDQ60701.94569.json

Data quality

Most of these data are generated automatically and are frequently updated. Quality checks on data are not normally performed. It is possible for incorrect values to appear. Refer to information at About Latest Weather Observations and please check the disclaimer before using these data.